Time;durP1;ratioP1;P1;durP2;ratioP2;P2;SDS_P1;SDS_P2;PMS_P1;PMS_P2;Temp;Humidity;BMP_temperature;BMP_pressure;BME280_temperature;BME280_humidity;BME280_pressure;Samples;Min_cycle;Max_cycle;Signal;HPM_P1;HPM_P2
2023/04/14 00:02:45;;;;;;;7.95;3.50;;;8.30;99.90;;;;;;6189447;23;20005;-89
2023/04/14 00:05:11;;;;;;;8.25;3.53;;;8.30;99.90;;;;;;6161326;23;20013;-89
2023/04/14 00:07:36;;;;;;;9.93;3.75;;;8.20;99.90;;;;;;6137324;23;20016;-89
2023/04/14 00:10:02;;;;;;;13.13;4.32;;;8.20;99.90;;;;;;6161232;23;20444;-89
2023/04/14 00:12:28;;;;;;;8.50;4.93;;;8.20;99.90;;;;;;6160603;23;20372;-89
2023/04/14 00:14:54;;;;;;;10.88;4.43;;;8.20;99.90;;;;;;6162209;23;20012;-92
2023/04/14 00:17:19;;;;;;;11.15;4.22;;;8.10;99.90;;;;;;6162072;23;20542;-92
2023/04/14 00:19:45;;;;;;;11.05;3.83;;;8.10;99.90;;;;;;6161964;23;20017;-90
2023/04/14 00:22:11;;;;;;;11.90;3.85;;;8.10;99.90;;;;;;6162332;23;20031;-92
2023/04/14 00:24:42;;;;;;;6.78;3.22;;;8.10;99.90;;;;;;6164259;23;20077;-91
2023/04/14 00:27:08;;;;;;;8.13;3.33;;;8.10;99.90;;;;;;6160732;23;20000;-91
2023/04/14 00:29:34;;;;;;;8.95;3.70;;;8.10;99.90;;;;;;6212915;23;20012;-92
2023/04/14 00:32:00;;;;;;;7.45;3.38;;;8.00;99.90;;;;;;6213206;23;19997;-90
2023/04/14 00:34:26;;;;;;;7.43;3.33;;;8.00;99.90;;;;;;6187136;23;19989;-87
2023/04/14 00:36:51;;;;;;;10.27;3.70;;;7.90;99.90;;;;;;6192087;23;20001;-87
2023/04/14 00:39:17;;;;;;;7.97;3.65;;;7.90;99.90;;;;;;6166975;23;20036;-88
2023/04/14 00:41:43;;;;;;;9.30;3.92;;;7.90;99.90;;;;;;6143774;23;20012;-88
2023/04/14 00:44:09;;;;;;;9.05;3.75;;;7.80;99.90;;;;;;6162811;23;20450;-92
2023/04/14 00:46:35;;;;;;;8.75;3.50;;;7.80;99.90;;;;;;6187754;23;20080;-94
2023/04/14 00:49:02;;;;;;;10.00;3.85;;;7.80;99.90;;;;;;6162335;23;20052;-94
2023/04/14 00:51:28;;;;;;;10.50;3.97;;;7.80;99.90;;;;;;6137799;23;20013;-95
2023/04/14 00:53:55;;;;;;;7.90;3.90;;;7.70;99.90;;;;;;6162446;23;20425;-96
2023/04/14 00:56:23;;;;;;;6.45;3.47;;;7.70;99.90;;;;;;6162477;23;20009;-95
2023/04/14 00:58:51;;;;;;;9.50;4.75;;;7.70;99.90;;;;;;6162000;23;20020;-94
2023/04/14 01:01:19;;;;;;;11.68;4.85;;;7.70;99.90;;;;;;6193118;23;20028;-94
2023/04/14 01:03:45;;;;;;;9.38;4.80;;;7.60;99.90;;;;;;6176366;23;20009;-93
2023/04/14 01:06:11;;;;;;;10.98;4.90;;;7.60;99.90;;;;;;6187513;23;20040;-95
2023/04/14 01:08:36;;;;;;;10.45;5.25;;;7.60;99.90;;;;;;6212121;23;20005;-96
2023/04/14 01:11:27;;;;;;;9.40;4.82;;;7.60;99.90;;;;;;6139804;23;20004;-95
2023/04/14 01:14:08;;;;;;;10.30;5.32;;;7.50;99.90;;;;;;6195328;23;19996;-87
2023/04/14 01:16:39;;;;;;;9.85;4.78;;;7.50;99.90;;;;;;6198532;23;20027;-88
2023/04/14 01:19:14;;;;;;;10.13;4.70;;;7.50;99.90;;;;;;6187317;23;20001;-89
2023/04/14 01:21:43;;;;;;;10.38;5.05;;;7.50;99.90;;;;;;6187312;23;20436;-87
2023/04/14 01:24:15;;;;;;;11.10;4.75;;;7.40;99.90;;;;;;6162969;23;20009;-88
2023/04/14 01:26:42;;;;;;;13.50;5.40;;;7.40;99.90;;;;;;6187255;23;20001;-87
2023/04/14 01:29:39;;;;;;;10.55;5.13;;;7.40;99.90;;;;;;6162557;23;20009;-87
2023/04/14 01:32:13;;;;;;;10.35;4.95;;;7.40;99.90;;;;;;6188936;23;20087;-93
2023/04/14 01:34:49;;;;;;;11.98;4.88;;;7.40;99.90;;;;;;6188504;23;20001;-94
2023/04/14 01:37:20;;;;;;;8.90;4.35;;;7.40;99.90;;;;;;6188675;23;19997;-93
2023/04/14 01:39:51;;;;;;;11.82;4.95;;;7.30;99.90;;;;;;6188671;23;20036;-94
2023/04/14 01:42:20;;;;;;;9.90;4.85;;;7.30;99.90;;;;;;6164400;23;20005;-93
2023/04/14 01:44:51;;;;;;;10.52;5.00;;;7.30;99.90;;;;;;6188550;23;20001;-94
2023/04/14 01:47:19;;;;;;;10.63;5.25;;;7.30;99.90;;;;;;6188886;23;20028;-93
2023/04/14 01:49:46;;;;;;;7.75;4.28;;;7.20;99.90;;;;;;6170338;23;20044;-92
2023/04/14 01:52:14;;;;;;;8.02;3.90;;;7.20;99.90;;;;;;6179819;23;20005;-94
2023/04/14 01:54:42;;;;;;;10.35;4.75;;;7.20;99.90;;;;;;6180864;23;20069;-92
2023/04/14 01:57:09;;;;;;;9.13;4.65;;;7.20;99.90;;;;;;6195227;23;20449;-93
2023/04/14 01:59:37;;;;;;;8.57;5.10;;;7.20;99.90;;;;;;6215652;23;20004;-91
2023/04/14 02:02:06;;;;;;;10.15;4.90;;;7.20;99.90;;;;;;6190423;23;19997;-95
2023/04/14 02:04:34;;;;;;;8.50;4.85;;;7.10;99.90;;;;;;6190195;23;20412;-93
2023/04/14 02:07:01;;;;;;;9.50;4.55;;;7.20;99.90;;;;;;6163630;23;20005;-91
2023/04/14 02:09:28;;;;;;;8.63;4.50;;;7.10;99.90;;;;;;6162910;23;20008;-92
2023/04/14 02:11:54;;;;;;;7.10;4.07;;;7.10;99.90;;;;;;6162956;23;20009;-92
2023/04/14 02:14:25;;;;;;;9.10;4.75;;;7.10;99.90;;;;;;6188071;23;20013;-91
2023/04/14 02:16:52;;;;;;;10.98;4.70;;;7.10;99.90;;;;;;6187829;23;20063;-92
2023/04/14 02:19:19;;;;;;;10.95;4.68;;;7.10;99.90;;;;;;6139246;23;20013;-90
2023/04/14 02:21:48;;;;;;;10.70;5.03;;;7.10;99.90;;;;;;6187602;23;20076;-89
2023/04/14 02:24:14;;;;;;;8.82;4.85;;;7.10;99.90;;;;;;6164770;23;20001;-89
2023/04/14 02:26:47;;;;;;;11.63;5.10;;;7.00;99.90;;;;;;6138950;23;20009;-91
2023/04/14 02:29:20;;;;;;;10.27;4.88;;;7.00;99.90;;;;;;6188364;23;20036;-92
2023/04/14 02:31:53;;;;;;;12.68;5.20;;;7.00;99.90;;;;;;6189034;23;20011;-93
2023/04/14 02:34:28;;;;;;;9.70;5.20;;;7.00;99.90;;;;;;6188439;23;20009;-93
2023/04/14 02:36:56;;;;;;;12.38;5.20;;;6.90;99.90;;;;;;6187763;23;20029;-93
2023/04/14 02:39:30;;;;;;;12.77;5.47;;;7.00;99.90;;;;;;6163778;23;20009;-94
2023/04/14 02:42:11;;;;;;;10.90;5.60;;;6.90;99.90;;;;;;6188294;23;20029;-94
2023/04/14 02:44:50;;;;;;;8.98;5.00;;;6.90;99.90;;;;;;6188574;23;20065;-94
2023/04/14 02:47:30;;;;;;;12.27;5.20;;;6.90;99.90;;;;;;6188761;23;20413;-92
2023/04/14 02:49:59;;;;;;;13.17;6.40;;;6.90;99.90;;;;;;6188595;23;20005;-92
2023/04/14 02:52:30;;;;;;;9.20;5.40;;;6.80;99.90;;;;;;6188485;23;20009;-93
2023/04/14 02:54:57;;;;;;;13.77;5.70;;;6.80;99.90;;;;;;6194999;23;20009;-91
2023/04/14 02:57:25;;;;;;;13.02;4.78;;;6.80;99.90;;;;;;6187525;23;20033;-88
2023/04/14 02:59:51;;;;;;;9.02;5.20;;;6.80;99.90;;;;;;6186740;23;20013;-88
2023/04/14 03:02:19;;;;;;;13.00;4.88;;;6.70;99.90;;;;;;6186610;23;20012;-88
2023/04/14 03:04:45;;;;;;;10.18;5.30;;;6.70;99.90;;;;;;6186576;23;20013;-88
2023/04/14 03:07:13;;;;;;;10.43;5.10;;;6.70;99.90;;;;;;6139695;23;20080;-89
2023/04/14 03:09:49;;;;;;;10.75;4.82;;;6.70;99.90;;;;;;6189425;23;20005;-89
2023/04/14 03:12:16;;;;;;;12.00;5.07;;;6.70;99.90;;;;;;6192460;23;20008;-93
2023/04/14 03:14:43;;;;;;;11.25;4.78;;;6.60;99.90;;;;;;6213128;23;20005;-93
2023/04/14 03:17:13;;;;;;;13.50;5.82;;;6.60;99.90;;;;;;6175259;23;20009;-93
2023/04/14 03:19:40;;;;;;;11.93;5.53;;;6.60;99.90;;;;;;6189641;23;20005;-89
2023/04/14 03:22:09;;;;;;;11.85;5.05;;;6.60;99.90;;;;;;6162790;23;20089;-89
2023/04/14 03:24:36;;;;;;;10.05;5.35;;;6.50;99.90;;;;;;6188459;23;20062;-90
2023/04/14 03:27:09;;;;;;;10.57;4.93;;;6.50;99.90;;;;;;6190166;23;20008;-90
2023/04/14 03:29:40;;;;;;;12.07;5.47;;;6.50;99.90;;;;;;6188503;23;20008;-89
2023/04/14 03:32:08;;;;;;;10.18;5.60;;;6.40;99.90;;;;;;6186922;23;20072;-89
2023/04/14 03:34:42;;;;;;;10.60;5.03;;;6.40;99.90;;;;;;6186332;23;20490;-89
2023/04/14 03:37:08;;;;;;;11.10;5.30;;;6.40;99.90;;;;;;6187584;23;19997;-94
2023/04/14 03:39:38;;;;;;;11.98;5.43;;;6.30;99.90;;;;;;6201978;23;19997;-94
2023/04/14 03:42:07;;;;;;;13.07;5.60;;;6.40;99.90;;;;;;6163132;23;20013;-95
2023/04/14 03:44:35;;;;;;;11.88;5.10;;;6.40;99.90;;;;;;6187552;23;20076;-94
2023/04/14 03:47:02;;;;;;;9.15;5.10;;;6.30;99.90;;;;;;6162592;23;20029;-94
2023/04/14 03:49:29;;;;;;;11.77;5.40;;;6.30;99.90;;;;;;6162480;23;20005;-93
2023/04/14 03:52:01;;;;;;;10.57;5.32;;;6.30;99.90;;;;;;6137745;23;20092;-94
2023/04/14 03:54:29;;;;;;;13.80;6.10;;;6.30;99.90;;;;;;6187291;23;20085;-93
2023/04/14 03:56:56;;;;;;;11.45;5.25;;;6.20;99.90;;;;;;6162529;23;20013;-93
2023/04/14 03:59:24;;;;;;;13.43;6.88;;;6.20;99.90;;;;;;6186907;23;20012;-94
2023/04/14 04:01:52;;;;;;;12.50;6.07;;;6.20;99.90;;;;;;6187789;23;20005;-90
2023/04/14 04:04:22;;;;;;;9.57;5.53;;;6.20;99.90;;;;;;6165817;23;20013;-91
2023/04/14 04:06:49;;;;;;;10.40;5.88;;;6.20;99.90;;;;;;6190627;23;20009;-92
2023/04/14 04:09:16;;;;;;;11.65;5.90;;;6.10;99.90;;;;;;6141810;23;20437;-92
2023/04/14 04:11:45;;;;;;;12.75;6.03;;;6.10;99.90;;;;;;6191787;23;20005;-88
2023/04/14 04:14:13;;;;;;;12.00;5.85;;;6.10;99.90;;;;;;6193810;23;20008;-88
2023/04/14 04:16:42;;;;;;;10.65;5.30;;;6.10;99.90;;;;;;6168085;23;20009;-88
2023/04/14 04:19:11;;;;;;;9.15;5.57;;;6.10;99.90;;;;;;6189745;23;20015;-94
2023/04/14 04:21:39;;;;;;;12.02;5.80;;;6.10;99.90;;;;;;6186533;23;20296;-94
2023/04/14 04:24:06;;;;;;;17.38;6.35;;;6.00;99.90;;;;;;6162184;23;20104;-93
2023/04/14 04:26:35;;;;;;;13.82;5.97;;;6.00;99.90;;;;;;6187073;23;20325;-93
2023/04/14 04:29:02;;;;;;;11.63;5.80;;;6.00;99.90;;;;;;6162150;23;20005;-93
2023/04/14 04:31:35;;;;;;;14.27;6.18;;;6.00;99.90;;;;;;6163782;23;20329;-94
2023/04/14 04:34:05;;;;;;;12.23;5.78;;;5.90;99.90;;;;;;6162580;23;20016;-94
2023/04/14 04:36:32;;;;;;;11.10;5.63;;;5.90;99.90;;;;;;6186514;23;20001;-88
2023/04/14 04:38:58;;;;;;;9.60;6.25;;;5.90;99.90;;;;;;6161914;23;20009;-88
2023/04/14 04:41:27;;;;;;;15.48;5.70;;;5.90;99.90;;;;;;6136767;23;20013;-89
2023/04/14 04:43:53;;;;;;;11.15;6.05;;;5.80;99.90;;;;;;6185483;23;20001;-88
2023/04/14 04:46:37;;;;;;;11.82;5.75;;;5.80;99.90;;;;;;6136339;23;20009;-90
2023/04/14 04:49:04;;;;;;;11.63;5.93;;;5.70;99.90;;;;;;6186314;23;20012;-90
2023/04/14 04:51:30;;;;;;;11.77;6.10;;;5.70;99.90;;;;;;6136617;23;20029;-90
2023/04/14 04:53:55;;;;;;;13.95;6.10;;;5.70;99.90;;;;;;6163084;23;20028;-94
2023/04/14 04:56:21;;;;;;;12.88;6.03;;;5.70;99.90;;;;;;6163686;23;20055;-95
2023/04/14 04:58:47;;;;;;;16.83;5.90;;;5.70;99.90;;;;;;6145733;23;20006;-91
2023/04/14 05:01:14;;;;;;;12.00;5.43;;;5.70;99.90;;;;;;6141569;23;20421;-90
2023/04/14 05:03:41;;;;;;;14.57;6.28;;;5.60;99.90;;;;;;6188683;23;20033;-90
2023/04/14 05:06:07;;;;;;;10.90;5.72;;;5.60;99.90;;;;;;6192034;23;20005;-90
2023/04/14 05:08:33;;;;;;;12.75;6.65;;;5.60;99.90;;;;;;6171074;23;20005;-89
2023/04/14 05:10:59;;;;;;;10.27;5.75;;;5.60;99.90;;;;;;6174792;23;20380;-88
2023/04/14 05:13:25;;;;;;;9.90;5.85;;;5.60;99.90;;;;;;6203283;23;20005;-88
2023/04/14 05:15:51;;;;;;;16.10;6.60;;;5.60;99.90;;;;;;6137963;23;20323;-95
2023/04/14 05:18:18;;;;;;;13.23;5.45;;;5.60;99.90;;;;;;6137885;23;20017;-95
2023/04/14 05:20:44;;;;;;;15.05;7.07;;;5.60;99.90;;;;;;6161629;23;20017;-95
2023/04/14 05:23:10;;;;;;;11.63;6.30;;;5.60;99.90;;;;;;6137735;23;20088;-95
2023/04/14 05:25:35;;;;;;;15.40;6.85;;;5.60;99.90;;;;;;6139571;23;20009;-95
2023/04/14 05:28:01;;;;;;;14.32;6.47;;;5.60;99.90;;;;;;6139873;23;20443;-94
2023/04/14 05:30:27;;;;;;;13.63;6.47;;;5.70;99.90;;;;;;6164088;23;20029;-94
2023/04/14 05:32:52;;;;;;;10.05;5.93;;;5.70;99.90;;;;;;6140893;23;20020;-95
2023/04/14 05:35:18;;;;;;;12.15;6.97;;;5.70;99.90;;;;;;6138406;23;20005;-93
2023/04/14 05:37:44;;;;;;;10.70;6.25;;;5.80;99.90;;;;;;6162637;23;20036;-92
2023/04/14 05:40:10;;;;;;;13.85;6.70;;;5.70;99.90;;;;;;6190584;23;20012;-93
2023/04/14 05:42:45;;;;;;;13.80;6.40;;;5.70;99.90;;;;;;6168117;23;19985;-91
2023/04/14 05:45:11;;;;;;;12.85;7.40;;;5.80;99.90;;;;;;6193326;23;20072;-92
2023/04/14 05:47:38;;;;;;;14.07;7.03;;;5.80;99.90;;;;;;6186029;23;20004;-90
2023/04/14 05:50:05;;;;;;;13.95;7.15;;;5.80;99.90;;;;;;6163322;23;20428;-93
2023/04/14 05:52:31;;;;;;;14.52;6.60;;;5.80;99.90;;;;;;6138156;23;20009;-92
2023/04/14 05:54:57;;;;;;;21.10;7.47;;;5.90;99.90;;;;;;6162755;23;20448;-92
2023/04/14 05:57:22;;;;;;;16.55;7.88;;;5.90;99.90;;;;;;6162842;23;20064;-93
2023/04/14 05:59:48;;;;;;;16.77;7.63;;;6.00;99.90;;;;;;6163680;23;20013;-89
2023/04/14 06:02:14;;;;;;;16.40;7.95;;;6.00;99.90;;;;;;6168925;23;20069;-90
2023/04/14 06:04:40;;;;;;;14.93;6.57;;;6.00;99.90;;;;;;6168698;23;20013;-89
2023/04/14 06:07:05;;;;;;;10.95;6.45;;;6.00;99.90;;;;;;6166938;23;20087;-90
2023/04/14 06:09:31;;;;;;;17.00;6.82;;;6.10;99.90;;;;;;6164698;23;20016;-90
2023/04/14 06:11:57;;;;;;;15.98;6.55;;;6.10;99.90;;;;;;6169084;23;20429;-89
2023/04/14 06:14:22;;;;;;;13.70;6.47;;;6.20;99.90;;;;;;6140984;23;20036;-89
2023/04/14 06:16:49;;;;;;;13.98;7.30;;;6.20;99.90;;;;;;6138973;23;20328;-93
2023/04/14 06:19:17;;;;;;;14.48;6.47;;;6.20;99.90;;;;;;6139082;23;20040;-93
2023/04/14 06:21:45;;;;;;;14.70;6.05;;;6.30;99.90;;;;;;6163579;23;20048;-95
2023/04/14 06:24:11;;;;;;;11.77;5.90;;;6.30;99.90;;;;;;6138474;23;20005;-89
2023/04/14 06:26:36;;;;;;;15.07;6.25;;;6.30;99.90;;;;;;6162463;23;20380;-90
2023/04/14 06:29:04;;;;;;;12.05;4.90;;;6.40;99.90;;;;;;6138553;23;20425;-91
2023/04/14 06:31:29;;;;;;;14.63;5.40;;;6.40;99.90;;;;;;6139386;23;20400;-91
2023/04/14 06:33:55;;;;;;;11.75;5.47;;;6.40;99.90;;;;;;6162762;23;20328;-93
2023/04/14 06:36:21;;;;;;;14.43;5.72;;;6.40;99.90;;;;;;6162581;23;20281;-94
2023/04/14 06:38:46;;;;;;;11.70;4.75;;;6.50;99.90;;;;;;6138289;23;20016;-93
2023/04/14 06:41:12;;;;;;;20.10;5.40;;;6.50;99.90;;;;;;6137970;23;20092;-94
2023/04/14 06:43:38;;;;;;;20.02;5.90;;;6.60;99.90;;;;;;6138223;23;20001;-94
2023/04/14 06:46:04;;;;;;;13.18;5.05;;;6.60;99.90;;;;;;6137739;23;20001;-92
2023/04/14 06:48:30;;;;;;;11.40;4.47;;;6.70;99.90;;;;;;6162900;23;20333;-94
2023/04/14 06:50:56;;;;;;;12.73;5.32;;;6.70;99.90;;;;;;6137968;23;20066;-89
2023/04/14 06:53:22;;;;;;;16.67;5.13;;;6.80;99.90;;;;;;6186286;23;20054;-88
2023/04/14 06:55:50;;;;;;;16.30;5.30;;;6.90;99.90;;;;;;6188108;23;20009;-88
2023/04/14 06:58:17;;;;;;;17.92;4.80;;;6.90;99.90;;;;;;6161704;23;20013;-88
2023/04/14 07:00:43;;;;;;;11.88;4.47;;;7.00;99.90;;;;;;6137038;23;20391;-96
2023/04/14 07:03:19;;;;;;;16.33;5.28;;;7.10;99.90;;;;;;6163011;23;20490;-93
2023/04/14 07:05:48;;;;;;;15.18;4.80;;;7.10;99.90;;;;;;6188468;23;20009;-95
2023/04/14 07:08:30;;;;;;;14.07;4.70;;;7.20;99.90;;;;;;6187994;23;20001;-95
2023/04/14 07:14:09;;;;;;;15.68;5.18;;;7.40;99.90;;;;;;6099622;23;20407;-96
2023/04/14 07:16:36;;;;;;;11.55;4.45;;;7.50;99.90;;;;;;6149803;23;20009;-95
2023/04/14 07:22:23;;;;;;;15.40;4.78;;;7.60;99.90;;;;;;6165610;23;20021;-96
2023/04/14 07:24:58;;;;;;;11.98;4.88;;;7.70;99.90;;;;;;6159765;23;20432;-94
2023/04/14 07:30:59;;;;;;;12.10;5.07;;;7.90;99.90;;;;;;6157494;23;20029;-96
2023/04/14 07:33:30;;;;;;;13.20;5.20;;;8.00;99.90;;;;;;6107978;23;20001;-94
2023/04/14 07:39:18;;;;;;;;;;;8.20;99.90;;;;;;6166232;23;19991;-93
2023/04/14 07:41:57;;;;;;;10.68;4.15;;;8.30;99.90;;;;;;6194526;23;19932;-92
2023/04/14 07:48:08;;;;;;;15.80;4.20;;;8.50;99.90;;;;;;6099628;23;20010;-95
2023/04/14 07:50:37;;;;;;;12.65;4.38;;;8.70;99.90;;;;;;6180167;23;20413;-95
2023/04/14 07:53:02;;;;;;;14.00;5.10;;;8.70;99.90;;;;;;6188537;23;20077;-95
2023/04/14 07:55:31;;;;;;;13.80;5.07;;;8.90;99.90;;;;;;6140669;23;20005;-94
2023/04/14 07:57:57;;;;;;;11.57;3.97;;;9.00;99.90;;;;;;6168841;23;20001;-90
2023/04/14 08:00:27;;;;;;;14.68;4.18;;;9.10;99.90;;;;;;6195475;23;20083;-93
2023/04/14 08:02:56;;;;;;;10.70;3.40;;;9.20;99.90;;;;;;6194436;23;19997;-90
2023/04/14 08:05:22;;;;;;;10.48;3.60;;;9.30;99.90;;;;;;6187234;23;20009;-93
2023/04/14 08:07:50;;;;;;;10.88;3.70;;;9.50;99.90;;;;;;6159008;23;20017;-91
2023/04/14 08:10:16;;;;;;;10.50;3.38;;;9.60;99.90;;;;;;6169719;23;20013;-96
2023/04/14 08:12:42;;;;;;;11.88;3.40;;;9.70;99.90;;;;;;6192132;23;20332;-92
2023/04/14 08:15:08;;;;;;;14.52;3.83;;;9.80;99.90;;;;;;6163051;23;20013;-95
2023/04/14 08:17:34;;;;;;;11.20;3.33;;;9.90;99.90;;;;;;6162847;23;20009;-93
2023/04/14 08:20:00;;;;;;;10.20;2.83;;;10.10;99.90;;;;;;6160406;23;20005;-94
2023/04/14 08:22:25;;;;;;;7.95;2.78;;;10.20;99.90;;;;;;6139205;23;20035;-96
2023/04/14 08:24:51;;;;;;;10.10;3.38;;;10.30;99.90;;;;;;6188707;23;20001;-94
2023/04/14 08:27:18;;;;;;;9.68;2.58;;;10.40;99.90;;;;;;6188452;23;20084;-95
2023/04/14 08:29:44;;;;;;;11.23;3.30;;;10.50;99.90;;;;;;6195820;23;19997;-92
2023/04/14 08:32:09;;;;;;;8.63;2.83;;;10.60;99.90;;;;;;6175235;23;20081;-93
2023/04/14 08:34:35;;;;;;;10.32;2.58;;;10.80;99.90;;;;;;6171502;23;20013;-94
2023/04/14 08:37:01;;;;;;;11.02;2.70;;;10.90;99.90;;;;;;6138266;23;20488;-95
2023/04/14 08:39:27;;;;;;;10.75;2.83;;;11.00;99.90;;;;;;6138521;23;20341;-93
2023/04/14 08:41:55;;;;;;;10.27;2.63;;;11.10;99.90;;;;;;6138276;23;20013;-94
2023/04/14 08:44:21;;;;;;;7.90;2.47;;;11.20;99.90;;;;;;6162470;23;20096;-85
2023/04/14 08:46:53;;;;;;;10.65;2.72;;;11.30;99.90;;;;;;6153093;23;20004;-93
2023/04/14 08:49:45;;;;;;;12.90;2.67;;;11.40;99.90;;;;;;6187003;23;19989;-93
2023/04/14 08:52:13;;;;;;;7.75;2.72;;;11.60;99.90;;;;;;6208716;23;20068;-94
2023/04/14 08:54:40;;;;;;;9.13;2.83;;;11.70;99.90;;;;;;6197500;23;20005;-89
2023/04/14 08:57:09;;;;;;;8.60;2.75;;;11.70;99.90;;;;;;6189917;23;20124;-89
2023/04/14 08:59:35;;;;;;;9.23;2.50;;;11.80;99.90;;;;;;6190505;23;20008;-92
2023/04/14 09:02:04;;;;;;;8.65;2.03;;;12.00;99.90;;;;;;6164940;23;20104;-92
2023/04/14 09:04:32;;;;;;;10.07;2.30;;;12.10;99.90;;;;;;6207832;23;19997;-92
2023/04/14 09:06:58;;;;;;;10.05;2.70;;;12.20;99.90;;;;;;6185451;23;20000;-93
2023/04/14 09:09:24;;;;;;;8.50;2.22;;;12.20;99.90;;;;;;6207694;23;20452;-90
2023/04/14 09:11:51;;;;;;;7.25;2.00;;;12.30;99.90;;;;;;6204200;23;20004;-90
2023/04/14 09:14:17;;;;;;;8.23;1.88;;;12.40;99.90;;;;;;6178195;23;20091;-90
2023/04/14 09:16:43;;;;;;;8.07;1.90;;;12.40;99.90;;;;;;6178056;23;20032;-90
2023/04/14 09:19:10;;;;;;;6.25;1.70;;;12.50;99.90;;;;;;6199525;23;20009;-88
2023/04/14 09:21:39;;;;;;;9.40;2.20;;;12.50;99.90;;;;;;6136538;23;20009;-88
2023/04/14 09:24:05;;;;;;;7.57;1.67;;;12.60;99.90;;;;;;6185790;23;20007;-88
2023/04/14 09:26:31;;;;;;;8.38;1.83;;;12.70;99.90;;;;;;6160955;23;20328;-88
2023/04/14 09:28:57;;;;;;;8.05;2.10;;;12.80;99.90;;;;;;6137318;23;20037;-87
2023/04/14 09:31:23;;;;;;;8.10;1.77;;;12.90;99.90;;;;;;6162721;23;20425;-89
2023/04/14 09:33:49;;;;;;;8.80;1.58;;;13.00;99.90;;;;;;6164650;23;20015;-93
2023/04/14 09:36:21;;;;;;;5.60;2.22;;;13.00;97.00;;;;;;6188437;23;20012;-87
2023/04/14 09:38:48;;;;;;;8.98;1.48;;;13.00;96.50;;;;;;6171373;23;20061;-86
2023/04/14 09:41:20;;;;;;;7.43;1.20;;;13.10;96.10;;;;;;6209560;23;20003;-87
2023/04/14 09:43:46;;;;;;;6.97;1.90;;;13.10;96.10;;;;;;6185182;23;20008;-87
2023/04/14 09:46:11;;;;;;;7.35;1.63;;;13.30;96.80;;;;;;6160878;23;20001;-87
2023/04/14 09:48:52;;;;;;;5.47;1.52;;;13.30;96.20;;;;;;6178884;23;20009;-87
2023/04/14 09:51:25;;;;;;;6.32;1.60;;;13.40;95.70;;;;;;6189302;23;20009;-88
2023/04/14 09:53:52;;;;;;;6.88;1.33;;;13.50;93.30;;;;;;6163764;23;20020;-87
2023/04/14 09:56:17;;;;;;;7.03;1.83;;;13.50;95.20;;;;;;6186728;23;20091;-87
2023/04/14 09:58:44;;;;;;;6.38;1.50;;;13.70;95.50;;;;;;6162037;23;20005;-87
2023/04/14 10:01:13;;;;;;;6.30;1.80;;;13.80;95.40;;;;;;6162190;23;20005;-87
2023/04/14 10:03:42;;;;;;;6.57;1.70;;;13.90;94.30;;;;;;6187628;23;20012;-90
2023/04/14 10:06:14;;;;;;;8.48;1.40;;;13.90;92.80;;;;;;6187747;23;20001;-88
2023/04/14 10:08:41;;;;;;;7.63;2.08;;;14.00;92.70;;;;;;6188425;23;20027;-89
2023/04/14 10:11:17;;;;;;;9.10;1.70;;;14.00;92.30;;;;;;6213777;23;19993;-90
2023/04/14 10:34:36;;;;;;;6.88;1.50;;;14.60;89.50;;;;;;6238368;22;20040;-88
2023/04/14 10:37:12;;;;;;;7.82;1.90;;;14.80;89.30;;;;;;6240648;23;20056;-88
2023/04/14 10:39:39;;;;;;;5.38;1.30;;;14.90;83.10;;;;;;6229239;23;20015;-91
2023/04/14 10:42:05;;;;;;;5.35;1.50;;;14.90;85.60;;;;;;6219842;23;20036;-91
2023/04/14 10:44:33;;;;;;;8.10;2.55;;;14.90;84.30;;;;;;6217198;23;20332;-91
2023/04/14 10:47:03;;;;;;;9.10;1.80;;;15.00;86.40;;;;;;6166955;23;20005;-90
2023/04/14 10:49:37;;;;;;;6.10;2.00;;;15.10;83.90;;;;;;6217139;23;20054;-92
2023/04/14 10:52:24;;;;;;;4.75;1.48;;;15.20;84.40;;;;;;6217380;23;20424;-91
2023/04/14 10:54:56;;;;;;;7.22;1.48;;;15.30;82.60;;;;;;6192788;23;20004;-92
2023/04/14 10:57:42;;;;;;;4.85;1.38;;;15.30;80.00;;;;;;6218405;23;20005;-91
2023/04/14 11:00:26;;;;;;;7.47;1.70;;;15.30;80.30;;;;;;6217921;23;20011;-94
2023/04/14 11:03:02;;;;;;;7.68;1.73;;;15.40;81.20;;;;;;6217541;23;20424;-89
2023/04/14 11:05:28;;;;;;;10.48;2.30;;;15.50;75.40;;;;;;6218042;23;20036;-90
2023/04/14 11:07:56;;;;;;;5.45;1.70;;;15.50;79.20;;;;;;6191020;23;20428;-90
2023/04/14 11:10:22;;;;;;;4.35;1.77;;;15.60;76.00;;;;;;6217284;23;20005;-88
2023/04/14 11:13:00;;;;;;;3.95;1.13;;;15.70;75.30;;;;;;6192878;23;20013;-89
2023/04/14 11:15:56;;;;;;;6.45;1.75;;;15.70;73.90;;;;;;6220242;23;20085;-86
2023/04/14 11:18:34;;;;;;;4.82;1.77;;;15.80;76.90;;;;;;6240430;23;20015;-87
2023/04/14 11:21:05;;;;;;;6.13;1.63;;;15.90;74.80;;;;;;6241670;23;20013;-86
2023/04/14 11:23:32;;;;;;;11.23;2.03;;;15.90;71.90;;;;;;6241252;23;19989;-86
2023/04/14 11:25:59;;;;;;;5.47;1.45;;;15.90;74.50;;;;;;6234580;23;20383;-87
2023/04/14 11:28:33;;;;;;;8.02;1.75;;;15.90;74.20;;;;;;6235775;23;20007;-86
2023/04/14 11:31:01;;;;;;;7.28;1.60;;;15.90;75.00;;;;;;6228807;23;20019;-87
2023/04/14 11:33:28;;;;;;;8.55;1.55;;;16.00;75.70;;;;;;6195594;23;20100;-92
2023/04/14 11:35:55;;;;;;;7.60;1.55;;;16.10;75.90;;;;;;6216284;23;20012;-92
2023/04/14 11:38:21;;;;;;;4.82;1.42;;;16.10;72.40;;;;;;6192060;23;20070;-90
2023/04/14 11:40:50;;;;;;;9.32;1.70;;;16.00;72.60;;;;;;6216743;23;20495;-91
2023/04/14 11:43:17;;;;;;;3.90;1.35;;;16.10;73.90;;;;;;6216973;23;20011;-92
2023/04/14 11:45:44;;;;;;;6.70;1.50;;;16.10;71.40;;;;;;6217161;23;20024;-93
2023/04/14 11:48:12;;;;;;;8.38;2.08;;;16.10;71.50;;;;;;6217629;23;20000;-93
2023/04/14 11:54:03;;;;;;;5.00;1.40;;;16.00;71.40;;;;;;6216238;23;20454;-94
2023/04/14 11:56:31;;;;;;;5.30;1.77;;;16.00;69.90;;;;;;6192286;23;20016;-93
2023/04/14 12:02:29;;;;;;;3.85;1.48;;;15.90;68.40;;;;;;6218446;23;20015;-94
2023/04/14 12:04:55;;;;;;;4.40;1.23;;;15.90;70.80;;;;;;6216538;23;20035;-92
2023/04/14 12:07:22;;;;;;;6.07;1.65;;;15.90;71.10;;;;;;6207677;23;19981;-91
2023/04/14 12:09:49;;;;;;;6.53;2.20;;;16.10;72.80;;;;;;6216976;23;20008;-90
2023/04/14 12:12:18;;;;;;;10.15;2.28;;;16.30;74.00;;;;;;6216217;23;20075;-93
2023/04/14 12:15:07;;;;;;;9.88;2.40;;;16.40;73.60;;;;;;6241988;23;20048;-92
2023/04/14 12:17:40;;;;;;;9.80;2.40;;;16.50;74.20;;;;;;6232059;23;20005;-95
2023/04/14 12:20:26;;;;;;;8.25;2.28;;;16.60;73.70;;;;;;6222064;23;20486;-92
2023/04/14 12:25:48;;;;;;;7.97;1.88;;;16.70;72.00;;;;;;6226814;23;20004;-91
2023/04/14 12:28:29;;;;;;;7.93;1.40;;;16.70;71.20;;;;;;6226543;23;20028;-92
2023/04/14 12:31:35;;;;;;;8.13;1.92;;;16.70;69.10;;;;;;6225478;23;20067;-93
2023/04/14 12:34:02;;;;;;;4.50;1.30;;;16.70;69.80;;;;;;6225527;23;20031;-91
2023/04/14 12:36:28;;;;;;;8.45;1.95;;;16.70;71.50;;;;;;6195924;23;20466;-92
2023/04/14 12:38:54;;;;;;;6.25;1.73;;;16.80;71.80;;;;;;6222196;23;20008;-88
2023/04/14 12:41:45;;;;;;;7.30;2.03;;;16.90;69.00;;;;;;6215951;23;20016;-89
2023/04/14 12:44:20;;;;;;;5.55;1.67;;;16.90;69.80;;;;;;6215476;23;20004;-89
2023/04/14 12:46:51;;;;;;;6.05;2.10;;;17.00;69.30;;;;;;6215412;23;20082;-87
2023/04/14 12:49:30;;;;;;;;;;;16.90;68.50;;;;;;6215348;23;20001;-88
2023/04/14 12:51:55;;;;;;;11.13;2.25;;;16.90;68.40;;;;;;6190380;23;20403;-88
2023/04/14 12:54:21;;;;;;;4.72;1.70;;;16.80;67.40;;;;;;6215330;23;20013;-88
2023/04/14 12:57:05;;;;;;;7.82;1.60;;;16.80;66.20;;;;;;6215127;23;20100;-87
2023/04/14 12:59:31;;;;;;;6.22;2.35;;;16.80;70.10;;;;;;6255048;23;20072;-88
2023/04/14 13:01:56;;;;;;;7.45;2.00;;;16.80;68.30;;;;;;6241534;23;20027;-88
2023/04/14 13:04:22;;;;;;;8.25;3.00;;;17.00;70.40;;;;;;6268426;22;19985;-87
2023/04/14 13:06:48;;;;;;;7.80;1.90;;;17.10;70.10;;;;;;6268978;22;20065;-87
2023/04/14 13:09:13;;;;;;;4.80;2.08;;;17.30;70.40;;;;;;6226304;23;19997;-88
2023/04/14 13:11:39;;;;;;;7.55;1.83;;;17.40;69.80;;;;;;6243733;23;20089;-88
2023/04/14 13:14:05;;;;;;;4.95;1.80;;;17.50;68.00;;;;;;6223097;23;20044;-88
2023/04/14 13:16:30;;;;;;;6.13;1.75;;;17.50;66.00;;;;;;6218100;23;20021;-88
2023/04/14 13:18:57;;;;;;;4.68;1.38;;;17.50;67.00;;;;;;6217745;23;20012;-88
2023/04/14 13:21:23;;;;;;;7.53;1.70;;;17.40;64.80;;;;;;6217510;23;20063;-88
2023/04/14 13:23:52;;;;;;;9.13;2.10;;;17.30;65.90;;;;;;6218278;23;20009;-87
2023/04/14 13:26:18;;;;;;;6.30;1.63;;;17.40;67.00;;;;;;6242796;23;20032;-87
2023/04/14 13:28:44;;;;;;;6.50;1.58;;;17.50;65.80;;;;;;6218217;23;20001;-87
2023/04/14 13:31:11;;;;;;;6.07;1.50;;;17.50;65.60;;;;;;6226943;23;20008;-87
2023/04/14 13:33:37;;;;;;;5.78;1.48;;;17.50;65.80;;;;;;6221891;23;20044;-87
2023/04/14 13:36:03;;;;;;;4.85;1.30;;;17.40;61.10;;;;;;6226492;23;20107;-87
2023/04/14 13:38:29;;;;;;;7.57;2.17;;;17.30;62.40;;;;;;6193965;23;20415;-88
2023/04/14 13:40:55;;;;;;;6.07;1.83;;;17.20;65.20;;;;;;6217906;23;20004;-87
2023/04/14 13:43:22;;;;;;;7.32;1.77;;;17.20;65.30;;;;;;6192616;23;20424;-88
2023/04/14 13:45:49;;;;;;;8.63;2.25;;;17.20;67.40;;;;;;6169446;23;20031;-93